Time;durP1;ratioP1;P1;durP2;ratioP2;P2;SDS_P1;SDS_P2;PMS_P1;PMS_P2;Temp;Humidity;BMP_temperature;BMP_pressure;BME280_temperature;BME280_humidity;BME280_pressure;Samples;Min_cycle;Max_cycle;Signal;HPM_P1;HPM_P2
2021/11/10 00:01:09;;;;;;;62.83;29.63;;;0.50;99.90;;;;;;6215417;23;20454;-91
2021/11/10 00:03:56;;;;;;;54.70;28.85;;;0.50;99.90;;;;;;6213887;23;20159;-90
2021/11/10 00:06:45;;;;;;;65.70;29.38;;;0.40;99.90;;;;;;6214847;23;20021;-90
2021/11/10 00:09:35;;;;;;;54.95;28.17;;;0.50;99.90;;;;;;6213846;23;20025;-90
2021/11/10 00:12:23;;;;;;;56.90;30.33;;;0.50;99.90;;;;;;6214190;23;20035;-90
2021/11/10 00:15:10;;;;;;;55.35;28.25;;;0.50;99.90;;;;;;6216166;23;20029;-90
2021/11/10 00:17:58;;;;;;;59.72;25.88;;;0.50;99.90;;;;;;6214665;23;20032;-89
2021/11/10 00:20:45;;;;;;;63.30;27.13;;;0.40;99.90;;;;;;6217242;23;20032;-90
2021/11/10 00:23:34;;;;;;;54.65;26.40;;;0.30;99.90;;;;;;6216988;23;20028;-90
2021/11/10 00:26:24;;;;;;;62.50;29.23;;;0.20;99.90;;;;;;6215965;23;20124;-89
2021/11/10 00:29:12;;;;;;;59.47;29.73;;;0.30;99.90;;;;;;6214484;23;20106;-89
2021/11/10 00:31:59;;;;;;;70.15;32.08;;;0.40;99.90;;;;;;6216926;23;20064;-89
2021/11/10 00:34:48;;;;;;;67.88;31.98;;;0.60;99.90;;;;;;6215378;23;20021;-91
2021/11/10 00:37:35;;;;;;;65.70;29.88;;;0.90;99.90;;;;;;6219122;23;20094;-91
2021/11/10 00:40:23;;;;;;;59.08;29.48;;;1.00;99.90;;;;;;6213926;23;20308;-89
2021/11/10 00:43:10;;;;;;;63.55;30.70;;;1.00;99.90;;;;;;6215574;23;20025;-88
2021/11/10 00:45:57;;;;;;;58.90;29.30;;;1.00;99.90;;;;;;6215331;23;20090;-90
2021/11/10 00:48:45;;;;;;;63.15;32.17;;;0.90;99.90;;;;;;6215164;23;20028;-90
2021/11/10 00:51:35;;;;;;;56.75;30.25;;;0.80;99.90;;;;;;6214436;23;20029;-90
2021/11/10 00:54:22;;;;;;;64.22;29.80;;;0.80;99.90;;;;;;6218174;23;20328;-91
2021/11/10 00:57:09;;;;;;;67.78;29.30;;;0.70;99.90;;;;;;6218853;23;20040;-88
2021/11/10 00:59:56;;;;;;;56.08;28.02;;;0.80;99.90;;;;;;6218531;23;20151;-88
2021/11/10 01:02:43;;;;;;;53.55;27.40;;;0.70;99.90;;;;;;6219634;23;20028;-88
2021/11/10 01:05:33;;;;;;;61.80;26.70;;;0.60;99.90;;;;;;6216073;23;20308;-90
2021/11/10 01:08:22;;;;;;;51.85;25.83;;;0.50;99.90;;;;;;6219343;22;20021;-89
2021/11/10 01:11:10;;;;;;;55.78;26.45;;;0.50;99.90;;;;;;6216519;23;20032;-89
2021/11/10 01:13:57;;;;;;;56.00;27.38;;;0.50;99.90;;;;;;6215323;23;20021;-90
2021/11/10 01:16:46;;;;;;;67.80;29.77;;;0.50;99.90;;;;;;6216627;23;20051;-90
2021/11/10 01:19:37;;;;;;;63.58;29.33;;;0.50;99.90;;;;;;6214817;23;20032;-90
2021/11/10 01:22:25;;;;;;;57.97;28.38;;;0.60;99.90;;;;;;6216174;23;20111;-90
2021/11/10 01:25:12;;;;;;;53.00;27.25;;;0.60;99.90;;;;;;6214485;23;20060;-89
2021/11/10 01:28:05;;;;;;;58.17;28.27;;;0.60;99.90;;;;;;6217254;23;20086;-88
2021/11/10 01:30:52;;;;;;;54.20;30.00;;;0.50;99.90;;;;;;6214231;23;20024;-88
2021/11/10 01:33:40;;;;;;;58.65;29.15;;;0.60;99.90;;;;;;6218189;22;20025;-88
2021/11/10 01:36:27;;;;;;;60.83;28.63;;;0.50;99.90;;;;;;6218505;23;20055;-89
2021/11/10 01:39:15;;;;;;;56.60;29.88;;;0.50;99.90;;;;;;6218941;23;20032;-89
2021/11/10 01:42:05;;;;;;;55.80;29.02;;;0.40;99.90;;;;;;6228383;23;20029;-89
2021/11/10 01:44:55;;;;;;;52.97;26.55;;;0.30;99.90;;;;;;6229790;23;20073;-88
2021/11/10 01:47:42;;;;;;;55.97;27.35;;;0.20;99.90;;;;;;6231369;23;20052;-89
2021/11/10 01:50:30;;;;;;;63.95;27.23;;;0.10;99.90;;;;;;6226437;23;20024;-89
2021/11/10 01:53:18;;;;;;;51.63;26.25;;;-0.10;99.90;;;;;;6219570;22;20035;-88
2021/11/10 01:56:05;;;;;;;52.25;26.17;;;-0.20;99.90;;;;;;6215338;23;20454;-87
2021/11/10 01:58:54;;;;;;;50.70;26.40;;;-0.20;99.90;;;;;;6214203;23;20327;-88
2021/11/10 02:01:48;;;;;;;58.65;26.42;;;-0.30;99.90;;;;;;6217304;23;20032;-88
2021/11/10 02:04:39;;;;;;;46.05;23.70;;;-0.30;99.90;;;;;;6216928;23;20024;-88
2021/11/10 02:07:27;;;;;;;47.30;23.42;;;-0.30;99.90;;;;;;6216580;23;20016;-89
2021/11/10 02:10:17;;;;;;;46.05;24.45;;;-0.30;99.90;;;;;;6213739;23;20074;-88
2021/11/10 02:13:05;;;;;;;46.60;24.15;;;-0.40;99.90;;;;;;6214818;23;20032;-89
2021/11/10 02:15:53;;;;;;;44.95;24.38;;;-0.40;99.90;;;;;;6213949;23;20032;-88
2021/11/10 02:18:40;;;;;;;43.60;23.48;;;-0.50;99.90;;;;;;6213471;23;20033;-87
2021/11/10 02:21:30;;;;;;;48.17;24.52;;;-0.50;99.90;;;;;;6214294;23;20368;-89
2021/11/10 02:24:19;;;;;;;40.40;22.60;;;-0.50;99.90;;;;;;6214219;23;20419;-89
2021/11/10 02:27:14;;;;;;;50.95;23.75;;;-0.60;99.90;;;;;;6216001;23;20021;-89
2021/11/10 02:30:14;;;;;;;50.85;22.83;;;-0.70;99.90;;;;;;6212921;23;20031;-90
2021/11/10 02:33:02;;;;;;;47.63;24.83;;;-0.70;99.90;;;;;;6214464;23;20024;-90
2021/11/10 02:36:01;;;;;;;52.72;26.17;;;-0.70;99.90;;;;;;6215791;23;20042;-88
2021/11/10 02:38:49;;;;;;;59.97;26.20;;;-0.70;99.90;;;;;;6213109;23;20055;-90
2021/11/10 02:41:38;;;;;;;58.08;28.02;;;-0.70;99.90;;;;;;6215678;23;20040;-89
2021/11/10 02:44:25;;;;;;;51.83;25.63;;;-0.70;99.90;;;;;;6213517;23;20367;-87
2021/11/10 02:47:18;;;;;;;55.63;26.73;;;-0.70;99.90;;;;;;6213395;23;20020;-88
2021/11/10 02:50:05;;;;;;;61.47;27.23;;;-0.70;99.90;;;;;;6212917;23;20028;-87
2021/11/10 02:52:53;;;;;;;57.00;27.60;;;-0.70;99.90;;;;;;6213609;23;20102;-89
2021/11/10 02:55:43;;;;;;;53.83;26.52;;;-0.70;99.90;;;;;;6213769;23;20025;-89
2021/11/10 02:58:32;;;;;;;54.70;27.48;;;-0.70;99.90;;;;;;6214619;23;20035;-87
2021/11/10 03:01:19;;;;;;;57.72;26.27;;;-0.70;99.90;;;;;;6213117;23;20025;-88
2021/11/10 03:04:28;;;;;;;54.08;26.60;;;-0.70;99.90;;;;;;6214848;23;20024;-88
2021/11/10 03:07:17;;;;;;;59.47;27.98;;;-0.80;99.90;;;;;;6213376;23;20115;-86
2021/11/10 03:10:05;;;;;;;51.45;27.17;;;-0.80;99.90;;;;;;6213889;23;20093;-88
2021/11/10 03:12:53;;;;;;;61.88;27.80;;;-0.70;99.90;;;;;;6215857;23;20032;-86
2021/11/10 03:15:42;;;;;;;65.95;29.02;;;-0.70;99.90;;;;;;6215042;23;20039;-90
2021/11/10 03:18:43;;;;;;;;;;;-0.80;99.90;;;;;;6216757;23;20443;-90
2021/11/10 03:21:30;;;;;;;62.40;28.00;;;-0.80;99.90;;;;;;6214105;23;19920;-90
2021/11/10 03:24:20;;;;;;;68.18;30.77;;;-0.70;99.90;;;;;;6215216;23;20035;-90
2021/11/10 03:27:08;;;;;;;67.50;30.13;;;-0.70;99.90;;;;;;6214662;23;20021;-89
2021/11/10 03:29:55;;;;;;;58.25;28.48;;;-0.70;99.90;;;;;;6215812;23;20036;-88
2021/11/10 03:32:42;;;;;;;58.35;28.63;;;-0.70;99.90;;;;;;6214439;23;20025;-90
2021/11/10 03:35:32;;;;;;;63.33;29.35;;;-0.80;99.90;;;;;;6214805;23;20072;-89
2021/11/10 03:38:19;;;;;;;64.90;29.77;;;-0.80;99.90;;;;;;6213749;23;20090;-91
2021/11/10 03:41:06;;;;;;;60.80;29.33;;;-0.90;99.90;;;;;;6214272;23;20077;-90
2021/11/10 03:43:56;;;;;;;57.53;28.73;;;-0.90;99.90;;;;;;6216111;23;20074;-90
2021/11/10 03:46:45;;;;;;;58.50;28.80;;;-0.90;99.90;;;;;;6212293;23;20107;-90
2021/11/10 03:49:33;;;;;;;56.72;28.83;;;-1.00;99.90;;;;;;6216565;23;20103;-89
2021/11/10 03:52:20;;;;;;;69.32;29.98;;;-0.90;99.90;;;;;;6213874;23;20063;-86
2021/11/10 03:55:08;;;;;;;54.25;29.38;;;-1.00;99.90;;;;;;6216209;23;20052;-90
2021/11/10 03:57:55;;;;;;;66.22;30.63;;;-1.00;99.90;;;;;;6216842;23;20117;-88
2021/11/10 04:00:42;;;;;;;81.65;34.75;;;-1.00;99.90;;;;;;6217195;23;20036;-88
2021/11/10 04:03:30;;;;;;;77.35;34.03;;;-0.80;99.90;;;;;;6214641;23;20047;-89
2021/11/10 04:06:20;;;;;;;70.15;34.33;;;-0.70;99.90;;;;;;6216466;23;20024;-89
2021/11/10 04:09:07;;;;;;;76.82;33.70;;;-0.70;99.90;;;;;;6217201;23;20025;-90
2021/11/10 04:11:57;;;;;;;76.25;33.60;;;-0.80;99.90;;;;;;6215549;23;20028;-89
2021/11/10 04:14:44;;;;;;;76.28;34.90;;;-0.80;99.90;;;;;;6216764;23;20320;-89
2021/11/10 04:17:34;;;;;;;83.65;37.15;;;-0.70;99.90;;;;;;6215375;23;20029;-91
2021/11/10 04:20:21;;;;;;;71.80;36.20;;;-0.70;99.90;;;;;;6214964;23;20340;-88
2021/11/10 04:23:09;;;;;;;76.32;34.92;;;-0.70;99.90;;;;;;6216891;23;20032;-89
2021/11/10 04:25:56;;;;;;;78.63;36.58;;;-0.60;99.90;;;;;;6214097;23;20403;-89
2021/11/10 04:28:43;;;;;;;88.38;38.33;;;-0.60;99.90;;;;;;6215038;23;20078;-89
2021/11/10 04:31:31;;;;;;;88.28;40.03;;;-0.60;99.90;;;;;;6216312;23;20021;-89
2021/11/10 04:34:19;;;;;;;86.43;38.60;;;-0.60;99.90;;;;;;6214198;23;20024;-88
2021/11/10 04:37:10;;;;;;;83.88;36.97;;;-0.60;99.90;;;;;;6217630;22;20196;-88
2021/11/10 04:39:57;;;;;;;83.68;35.08;;;-0.60;99.90;;;;;;6216788;23;20024;-90
2021/11/10 04:42:44;;;;;;;79.43;36.58;;;-0.60;99.90;;;;;;6215262;23;20108;-89
2021/11/10 04:45:34;;;;;;;93.75;37.38;;;-0.40;99.90;;;;;;6215452;23;20420;-90
2021/11/10 04:48:24;;;;;;;72.82;37.40;;;-0.50;99.90;;;;;;6221093;23;20024;-89
2021/11/10 04:51:15;;;;;;;82.18;36.10;;;-0.50;99.90;;;;;;6215882;23;20032;-86
2021/11/10 04:54:09;;;;;;;81.22;36.10;;;-0.50;99.90;;;;;;6185603;23;20110;-88
2021/11/10 04:56:58;;;;;;;85.78;36.08;;;-0.60;99.90;;;;;;6166251;23;20376;-89
2021/11/10 04:59:46;;;;;;;79.32;35.85;;;-0.60;99.90;;;;;;6164721;23;20033;-88
2021/11/10 05:06:33;;;;;;;73.78;31.73;;;-0.70;99.90;;;;;;6166739;23;20033;-87
2021/11/10 05:09:20;;;;;;;83.82;33.92;;;-0.80;99.90;;;;;;6163335;23;20032;-90
2021/11/10 05:12:08;;;;;;;80.25;35.75;;;-0.80;99.90;;;;;;6163489;23;20025;-89
2021/11/10 05:14:59;;;;;;;85.75;36.30;;;-0.70;99.90;;;;;;6186636;23;20025;-88
2021/11/10 05:17:46;;;;;;;83.07;37.75;;;-0.60;99.90;;;;;;6164186;23;20035;-86
2021/11/10 05:20:36;;;;;;;81.47;38.53;;;-0.60;99.90;;;;;;6163724;23;20336;-88
2021/11/10 05:23:24;;;;;;;97.63;40.40;;;-0.60;99.90;;;;;;6187880;23;20317;-92
2021/11/10 05:26:58;;;;;;;89.28;38.00;;;-0.60;99.90;;;;;;6163025;23;20017;-89
2021/11/10 05:29:58;;;;;;;80.22;37.45;;;-0.60;99.90;;;;;;6185611;23;20035;-90
2021/11/10 05:32:46;;;;;;;86.75;38.67;;;-0.50;99.90;;;;;;6162575;23;20032;-88
2021/11/10 05:35:56;;;;;;;84.65;37.83;;;-0.40;99.90;;;;;;6186314;23;20077;-89
2021/11/10 05:39:17;;;;;;;82.28;37.05;;;-0.50;99.90;;;;;;6168487;23;20036;-90
2021/11/10 05:43:05;;;;;;;;;;;;;;;;;;;;;
2021/11/10 05:46:50;;;;;;;74.38;34.45;;;-0.70;99.90;;;;;;6068123;23;19937;-86
2021/11/10 05:50:15;;;;;;;83.20;37.22;;;-0.70;99.90;;;;;;6045459;23;20067;-89
2021/11/10 05:53:26;;;;;;;95.57;37.78;;;-0.80;99.90;;;;;;6077970;23;20124;-89
2021/11/10 05:56:42;;;;;;;77.35;34.83;;;-0.80;99.90;;;;;;6060111;23;20053;-88
2021/11/10 05:59:33;;;;;;;83.72;35.97;;;-0.80;99.90;;;;;;6103060;23;20134;-88
2021/11/10 06:02:23;;;;;;;78.22;36.15;;;-0.80;99.90;;;;;;6130842;23;20040;-90
2021/11/10 06:05:15;;;;;;;90.07;35.85;;;-0.80;99.90;;;;;;6218399;23;20035;-89
2021/11/10 06:20:16;;;;;;;77.43;34.17;;;-0.80;99.90;;;;;;6164086;23;20067;-90
2021/11/10 06:24:17;;;;;;;;;;;;;;;;;;;;;
2021/11/10 06:27:43;;;;;;;77.93;35.27;;;-0.90;99.90;;;;;;6121880;23;20032;-90
2021/11/10 06:31:01;;;;;;;53.20;25.37;;;-1.00;99.90;;;;;;6138728;23;20029;-90
2021/11/10 06:34:06;;;;;;;77.45;34.03;;;-0.90;99.90;;;;;;6145052;23;20029;-90
2021/11/10 06:37:02;;;;;;;78.53;34.90;;;-1.00;99.90;;;;;;6139388;23;20173;-88
2021/11/10 06:39:50;;;;;;;78.30;34.83;;;-1.00;99.90;;;;;;6180917;23;20031;-88
2021/11/10 06:42:38;;;;;;;73.78;34.42;;;-1.10;99.90;;;;;;6220092;23;20470;-87
2021/11/10 06:45:36;;;;;;;;;;;;;;;;;;;;;
2021/11/10 06:48:57;;;;;;;86.70;37.45;;;-1.00;99.90;;;;;;6217213;23;20024;-92
2021/11/10 06:52:08;;;;;;;82.07;36.05;;;-0.80;99.90;;;;;;6219733;23;20028;-89
2021/11/10 06:54:56;;;;;;;72.60;34.55;;;-0.80;99.90;;;;;;6216888;23;20094;-86
2021/11/10 06:57:44;;;;;;;78.50;36.15;;;-0.70;99.90;;;;;;6214360;23;20028;-86
2021/11/10 07:00:34;;;;;;;76.68;37.25;;;-0.60;99.90;;;;;;6219186;23;20094;-86
2021/11/10 07:03:26;;;;;;;86.90;36.28;;;-0.50;99.90;;;;;;6216845;23;20020;-85
2021/11/10 07:06:14;;;;;;;84.88;35.92;;;-0.40;99.90;;;;;;6215276;23;20029;-85
2021/11/10 07:09:03;;;;;;;74.63;35.80;;;-0.30;99.90;;;;;;6216445;23;20089;-83
2021/11/10 07:11:54;;;;;;;76.93;36.70;;;-0.30;99.90;;;;;;6220879;23;20094;-85
2021/11/10 07:14:45;;;;;;;93.57;41.97;;;-0.20;99.90;;;;;;6221871;23;20047;-84
2021/11/10 07:17:34;;;;;;;89.68;43.55;;;-0.20;99.90;;;;;;6198126;23;20024;-85
2021/11/10 07:20:22;;;;;;;91.50;43.03;;;0.00;99.90;;;;;;6217201;23;20036;-86
2021/11/10 07:23:11;;;;;;;78.95;39.28;;;0.10;99.90;;;;;;6217933;23;20033;-86
2021/11/10 07:26:01;;;;;;;91.22;42.35;;;0.30;99.90;;;;;;6218241;23;20028;-86
2021/11/10 07:28:52;;;;;;;79.20;39.55;;;0.40;99.90;;;;;;6216934;23;20359;-85
2021/11/10 07:31:43;;;;;;;81.00;40.00;;;0.70;99.90;;;;;;6216487;23;20149;-86
2021/11/10 07:34:30;;;;;;;74.72;36.85;;;0.90;99.90;;;;;;6198446;23;20024;-86
2021/11/10 07:37:19;;;;;;;75.53;37.35;;;1.10;99.90;;;;;;6221645;22;20032;-85
2021/11/10 07:40:07;;;;;;;64.20;34.78;;;1.30;99.90;;;;;;6218373;23;20028;-86
2021/11/10 07:42:56;;;;;;;64.03;35.85;;;1.30;99.90;;;;;;6222420;23;20032;-86
2021/11/10 07:45:50;;;;;;;58.00;32.25;;;1.20;99.90;;;;;;6218645;23;20090;-86
2021/11/10 07:48:41;;;;;;;68.40;33.85;;;1.10;99.90;;;;;;6220966;23;20047;-85
2021/11/10 07:51:30;;;;;;;56.10;31.88;;;1.00;99.90;;;;;;6220418;23;20025;-86
2021/11/10 07:54:17;;;;;;;57.15;31.50;;;1.00;99.90;;;;;;6220567;23;20139;-87
2021/11/10 07:57:07;;;;;;;54.35;30.13;;;1.10;99.90;;;;;;6217568;23;20036;-84
2021/11/10 07:59:57;;;;;;;63.70;32.08;;;1.10;99.90;;;;;;6217828;23;20039;-85
2021/11/10 08:02:44;;;;;;;51.58;30.52;;;1.20;99.90;;;;;;6216787;23;20147;-84
2021/11/10 08:05:32;;;;;;;59.95;30.25;;;1.40;99.90;;;;;;6219344;23;20062;-84
2021/11/10 08:08:20;;;;;;;50.67;28.38;;;1.50;99.90;;;;;;6221602;22;20025;-86
2021/11/10 08:11:10;;;;;;;46.78;28.08;;;1.60;99.90;;;;;;6220018;22;20032;-84
2021/11/10 08:13:58;;;;;;;48.13;27.30;;;1.70;99.90;;;;;;6217902;23;20056;-86
2021/11/10 08:16:47;;;;;;;47.05;27.02;;;1.60;99.90;;;;;;6220781;23;20096;-85
2021/11/10 08:19:35;;;;;;;44.78;26.70;;;1.70;99.90;;;;;;6219729;23;20028;-87
2021/11/10 08:22:23;;;;;;;44.28;25.60;;;1.90;99.90;;;;;;6219153;23;20151;-86
2021/11/10 08:25:14;;;;;;;48.70;27.58;;;2.00;99.90;;;;;;6221977;23;20061;-87
2021/11/10 08:28:02;;;;;;;44.03;26.13;;;2.30;99.90;;;;;;6224815;23;20032;-88
2021/11/10 08:30:49;;;;;;;44.53;24.30;;;2.50;99.90;;;;;;6225349;23;20431;-87
2021/11/10 08:33:36;;;;;;;43.83;24.52;;;2.50;99.90;;;;;;6228645;22;20036;-86
2021/11/10 08:36:24;;;;;;;40.30;24.85;;;2.60;99.90;;;;;;6224254;23;20039;-86
2021/11/10 08:39:11;;;;;;;36.08;23.13;;;2.70;99.90;;;;;;6226485;23;20056;-88
2021/11/10 08:42:00;;;;;;;38.45;24.20;;;2.80;99.90;;;;;;6226055;23;20036;-86
2021/11/10 08:44:51;;;;;;;39.45;24.15;;;2.70;99.90;;;;;;6227938;23;20055;-86
2021/11/10 08:47:43;;;;;;;35.90;21.70;;;2.80;99.90;;;;;;6224057;23;20029;-85
2021/11/10 08:50:30;;;;;;;32.45;20.90;;;3.10;99.90;;;;;;6227258;23;20020;-85
2021/11/10 08:53:19;;;;;;;36.60;20.42;;;3.30;99.90;;;;;;6227159;22;20037;-85
2021/11/10 08:56:07;;;;;;;34.08;20.90;;;3.50;99.90;;;;;;6224735;23;20024;-84
2021/11/10 08:58:55;;;;;;;36.92;20.88;;;3.60;99.90;;;;;;6227696;23;20352;-84
2021/11/10 09:01:44;;;;;;;41.13;21.55;;;3.40;99.90;;;;;;6226293;23;20094;-87
2021/11/10 09:04:52;;;;;;;40.20;21.90;;;3.40;99.90;;;;;;6224111;23;20313;-86
2021/11/10 09:07:42;;;;;;;36.55;21.00;;;3.40;99.90;;;;;;6222336;23;20051;-86
2021/11/10 09:10:33;;;;;;;39.38;21.75;;;3.60;99.90;;;;;;6224431;23;20036;-86
2021/11/10 09:13:23;;;;;;;40.63;22.40;;;3.80;99.90;;;;;;6222325;23;20076;-87
2021/11/10 09:16:11;;;;;;;32.22;20.58;;;4.10;99.90;;;;;;6225494;23;20031;-87
2021/11/10 09:18:59;;;;;;;34.97;21.20;;;4.40;99.90;;;;;;6220642;23;20430;-88
2021/11/10 09:21:49;;;;;;;33.08;20.27;;;4.70;99.90;;;;;;6224939;23;20029;-88
2021/11/10 09:24:39;;;;;;;29.00;18.70;;;5.00;99.90;;;;;;6225092;23;20024;-87
2021/11/10 09:27:27;;;;;;;28.73;16.65;;;5.40;99.90;;;;;;6224583;23;20024;-89
2021/11/10 09:30:18;;;;;;;28.90;17.33;;;5.60;99.90;;;;;;6232794;23;20051;-88
2021/11/10 09:33:07;;;;;;;25.05;16.13;;;5.90;99.90;;;;;;6228769;23;20025;-89
2021/11/10 09:35:54;;;;;;;30.42;18.33;;;6.30;99.90;;;;;;6230534;23;20087;-88
2021/11/10 09:38:42;;;;;;;31.55;18.60;;;6.40;99.90;;;;;;6227193;23;20119;-89
2021/11/10 09:41:53;;;;;;;32.22;18.90;;;6.40;99.90;;;;;;6228646;23;20039;-88
2021/11/10 09:45:34;;;;;;;29.80;17.88;;;6.50;99.90;;;;;;6175598;23;20055;-88
2021/11/10 09:48:59;;;;;;;27.92;17.48;;;6.60;99.90;;;;;;6168821;23;20101;-88
2021/11/10 09:52:00;;;;;;;33.97;19.15;;;6.70;99.90;;;;;;6176237;23;20040;-87
2021/11/10 09:54:50;;;;;;;30.52;20.10;;;6.40;99.90;;;;;;6173645;23;20025;-87
2021/11/10 09:57:40;;;;;;;36.03;20.88;;;6.20;99.90;;;;;;6187535;23;20024;-87
2021/11/10 10:00:37;;;;;;;31.58;19.73;;;5.90;99.90;;;;;;6184583;23;20028;-89
2021/11/10 10:03:25;;;;;;;33.83;19.27;;;5.80;99.90;;;;;;6183599;23;20025;-89
2021/11/10 10:06:22;;;;;;;33.50;19.13;;;5.70;99.90;;;;;;6185875;23;20099;-89
2021/11/10 10:09:12;;;;;;;30.83;18.45;;;5.70;99.90;;;;;;6182838;23;20416;-89
2021/11/10 10:12:19;;;;;;;33.40;18.73;;;5.90;99.90;;;;;;6171076;23;20025;-90
2021/11/10 10:15:10;;;;;;;26.80;18.17;;;6.10;99.90;;;;;;6178225;23;20053;-88
2021/11/10 10:18:26;;;;;;;31.65;18.52;;;6.20;99.90;;;;;;6177747;23;20056;-89
2021/11/10 10:21:24;;;;;;;37.85;21.80;;;6.20;99.90;;;;;;6187169;23;20055;-89
2021/11/10 10:24:15;;;;;;;33.90;21.40;;;6.30;99.90;;;;;;6229037;23;20091;-89
2021/11/10 10:27:30;;;;;;;33.60;21.75;;;6.60;99.90;;;;;;6231133;23;20091;-90
2021/11/10 10:30:42;;;;;;;34.50;20.08;;;6.90;99.90;;;;;;6232265;23;20072;-88
2021/11/10 10:34:01;;;;;;;28.25;18.23;;;7.40;99.90;;;;;;6232286;23;20055;-89
2021/11/10 10:36:52;;;;;;;30.02;19.23;;;8.10;99.90;;;;;;6228635;23;20044;-87
2021/11/10 10:40:26;;;;;;;29.70;18.13;;;8.50;99.90;;;;;;6230046;23;20478;-88
2021/11/10 10:43:15;;;;;;;26.13;17.35;;;9.00;99.90;;;;;;6231547;23;20055;-89
2021/11/10 10:46:03;;;;;;;26.02;16.15;;;10.20;99.90;;;;;;6229505;23;20024;-88
2021/11/10 10:48:50;;;;;;;22.48;14.80;;;11.30;99.90;;;;;;6231257;23;20025;-88
2021/11/10 10:51:41;;;;;;;23.55;14.65;;;12.80;94.60;;;;;;6229800;23;20027;-90
2021/11/10 10:54:29;;;;;;;25.23;14.60;;;14.20;86.20;;;;;;6234070;23;20063;-87
2021/11/10 10:57:23;;;;;;;21.35;14.45;;;15.30;74.70;;;;;;6237444;23;20052;-86
2021/11/10 11:00:29;;;;;;;21.95;13.98;;;16.30;68.20;;;;;;6235571;23;20029;-87
2021/11/10 11:03:16;;;;;;;18.42;12.90;;;17.00;64.70;;;;;;6237707;23;20039;-86
2021/11/10 11:06:06;;;;;;;18.33;13.38;;;17.10;63.00;;;;;;6235527;23;20028;-85
2021/11/10 11:08:56;;;;;;;21.10;12.85;;;17.40;63.10;;;;;;6237590;23;20021;-87
2021/11/10 11:12:04;;;;;;;18.73;12.18;;;18.20;58.50;;;;;;6232382;23;20048;-86
2021/11/10 11:15:06;;;;;;;20.13;12.32;;;18.20;56.70;;;;;;6221006;23;20024;-87
2021/11/10 11:17:55;;;;;;;20.00;11.75;;;18.10;56.20;;;;;;6224215;23;20040;-87
2021/11/10 11:20:46;;;;;;;14.57;10.98;;;17.90;54.80;;;;;;6222706;23;20151;-88
2021/11/10 11:23:41;;;;;;;15.80;10.77;;;17.80;54.80;;;;;;6219146;23;20332;-88
2021/11/10 11:26:37;;;;;;;17.48;10.98;;;17.80;54.40;;;;;;6219429;23;20028;-88
2021/11/10 11:29:34;;;;;;;17.63;11.95;;;17.90;54.80;;;;;;6217647;23;20031;-89
2021/11/10 11:32:33;;;;;;;16.58;11.55;;;18.50;53.80;;;;;;6217733;23;20055;-88
2021/11/10 11:35:30;;;;;;;16.98;11.27;;;18.70;52.80;;;;;;6219779;23;20344;-89
2021/11/10 11:38:23;;;;;;;14.35;11.88;;;18.30;53.00;;;;;;6216131;23;20032;-89
2021/11/10 11:41:15;;;;;;;18.50;11.90;;;17.90;54.80;;;;;;6219605;23;20332;-89
2021/11/10 11:44:11;;;;;;;17.00;11.77;;;17.80;55.20;;;;;;6220909;23;20028;-88
2021/11/10 11:47:01;;;;;;;16.08;11.75;;;16.70;57.20;;;;;;6221348;23;20024;-88
2021/11/10 11:49:54;;;;;;;17.27;11.95;;;16.40;59.10;;;;;;6216361;23;20392;-87
2021/11/10 11:52:47;;;;;;;17.83;12.23;;;16.30;59.00;;;;;;6217021;23;20024;-87
2021/11/10 11:55:43;;;;;;;18.83;12.88;;;16.30;59.90;;;;;;6219732;23;20039;-89
2021/11/10 11:58:38;;;;;;;18.67;11.15;;;17.00;59.80;;;;;;6220110;23;20028;-88
2021/11/10 12:01:36;;;;;;;21.40;13.52;;;17.70;59.20;;;;;;6217626;23;20033;-89
2021/11/10 12:04:32;;;;;;;17.67;11.70;;;17.60;57.40;;;;;;6219446;23;20024;-89
2021/11/10 12:07:45;;;;;;;17.40;11.18;;;17.80;57.50;;;;;;6219303;23;20040;-89
2021/11/10 12:10:55;;;;;;;;;;;;;;;;;;;;;
2021/11/10 12:14:15;;;;;;;19.42;12.55;;;18.70;54.70;;;;;;6217500;23;20024;-89
2021/11/10 12:17:11;;;;;;;19.00;11.90;;;18.00;56.40;;;;;;6211872;23;20029;-89
2021/11/10 12:20:11;;;;;;;16.70;10.85;;;17.80;55.70;;;;;;6220910;22;20025;-88
2021/11/10 12:23:09;;;;;;;17.50;11.20;;;17.00;58.70;;;;;;6218025;23;20024;-85
2021/11/10 12:26:11;;;;;;;15.48;10.77;;;17.40;57.40;;;;;;6216857;23;20028;-86
2021/11/10 12:29:02;;;;;;;14.23;10.87;;;18.00;55.20;;;;;;6217721;23;20029;-86
2021/11/10 12:31:52;;;;;;;15.68;9.80;;;19.10;53.60;;;;;;6216336;23;20075;-86
2021/11/10 12:34:40;;;;;;;17.23;11.02;;;19.70;52.70;;;;;;6221299;23;20028;-85
2021/11/10 12:37:30;;;;;;;16.38;10.60;;;21.30;49.20;;;;;;6217760;23;20088;-85
2021/11/10 12:40:30;;;;;;;13.00;9.82;;;20.90;49.20;;;;;;6217698;23;20024;-87
2021/11/10 12:43:23;;;;;;;13.55;9.85;;;22.50;46.40;;;;;;6218165;23;20107;-87
2021/11/10 12:46:27;;;;;;;12.90;9.27;;;23.10;44.10;;;;;;6220530;23;20025;-88
2021/11/10 12:49:25;;;;;;;12.32;9.75;;;23.00;43.80;;;;;;6219193;23;20381;-86
2021/11/10 12:52:19;;;;;;;13.05;9.02;;;23.30;42.10;;;;;;6220276;23;20021;-88
2021/11/10 12:55:23;;;;;;;14.40;9.27;;;22.90;42.40;;;;;;6206542;23;20031;-88
2021/11/10 13:02:33;;;;;;;19.65;9.70;;;22.20;43.10;;;;;;6232017;23;20039;-89
2021/11/10 13:06:00;;;;;;;12.07;8.20;;;21.00;44.20;;;;;;6226816;23;20032;-89
2021/11/10 13:08:58;;;;;;;15.70;8.82;;;20.30;46.20;;;;;;6221497;23;20104;-86
2021/11/10 13:11:50;;;;;;;13.10;8.65;;;19.40;47.50;;;;;;6222263;23;20099;-86
2021/11/10 13:14:49;;;;;;;14.82;8.65;;;18.40;49.30;;;;;;6220602;23;20071;-86
2021/11/10 13:18:14;;;;;;;14.10;9.50;;;17.20;51.60;;;;;;6219147;23;20177;-86
2021/11/10 13:21:04;;;;;;;14.68;9.23;;;15.60;56.90;;;;;;6216170;23;20031;-85
2021/11/10 13:24:22;;;;;;;13.32;8.60;;;14.90;58.10;;;;;;6210561;23;20127;-86
2021/11/10 13:27:10;;;;;;;14.18;9.57;;;14.40;59.30;;;;;;6214489;23;20021;-86
2021/11/10 13:29:59;;;;;;;13.38;8.45;;;13.60;61.50;;;;;;6214397;23;20025;-87
2021/11/10 13:33:04;;;;;;;18.50;10.60;;;13.40;64.20;;;;;;6216446;23;20114;-90
2021/11/10 13:36:13;;;;;;;19.15;11.77;;;13.30;65.20;;;;;;6216411;23;20021;-89
2021/11/10 13:39:05;;;;;;;16.70;11.02;;;13.60;65.90;;;;;;6217090;23;20103;-87
2021/11/10 13:41:56;;;;;;;18.05;10.20;;;14.30;64.20;;;;;;6219572;23;20034;-87
2021/11/10 13:44:47;;;;;;;15.82;10.70;;;14.90;61.80;;;;;;6216384;23;20055;-86
2021/11/10 13:47:39;;;;;;;14.80;8.88;;;15.50;60.40;;;;;;6215758;23;20056;-87
2021/11/10 13:50:41;;;;;;;16.08;8.98;;;16.40;58.20;;;;;;6234356;23;20063;-86
2021/11/10 13:53:31;;;;;;;13.77;8.60;;;16.50;56.20;;;;;;6214468;23;20300;-87
2021/11/10 13:56:42;;;;;;;14.95;8.95;;;16.40;56.20;;;;;;6215671;23;20040;-86
2021/11/10 13:59:38;;;;;;;11.98;7.80;;;16.90;56.60;;;;;;6216632;23;20021;-87
2021/11/10 14:02:45;;;;;;;13.48;8.32;;;17.10;56.40;;;;;;6214555;23;20047;-85
2021/11/10 14:05:34;;;;;;;12.65;7.47;;;17.30;55.80;;;;;;6213998;23;20120;-86
2021/11/10 14:08:24;;;;;;;12.30;7.88;;;17.00;56.60;;;;;;6215734;23;20020;-84
2021/11/10 14:11:11;;;;;;;14.68;9.25;;;16.60;57.70;;;;;;6214762;23;20024;-86
2021/11/10 14:13:58;;;;;;;15.90;10.00;;;15.70;59.80;;;;;;6213367;23;20028;-87
2021/11/10 14:16:56;;;;;;;17.73;11.13;;;14.50;62.30;;;;;;6214063;23;20025;-87
2021/11/10 14:19:44;;;;;;;18.55;11.80;;;13.70;65.90;;;;;;6214388;23;20080;-88
2021/11/10 14:22:33;;;;;;;18.33;11.43;;;13.00;68.70;;;;;;6214975;23;20037;-82
2021/11/10 14:25:22;;;;;;;16.80;11.90;;;12.50;71.60;;;;;;6215733;23;20029;-85
2021/11/10 14:28:14;;;;;;;19.98;11.40;;;11.90;74.30;;;;;;6218103;23;20028;-84
2021/11/10 14:31:10;;;;;;;19.65;10.75;;;11.50;78.00;;;;;;6215981;23;20032;-87
2021/11/10 14:34:08;;;;;;;18.17;11.82;;;11.50;81.00;;;;;;6214240;23;20031;-85
2021/11/10 14:37:04;;;;;;;19.52;11.93;;;12.00;79.60;;;;;;6213500;23;20017;-86
2021/11/10 14:39:53;;;;;;;19.02;11.38;;;12.90;76.10;;;;;;6215933;23;20040;-88
2021/11/10 14:42:43;;;;;;;19.83;12.50;;;13.80;72.00;;;;;;6213911;23;20438;-88
2021/11/10 14:45:38;;;;;;;20.85;11.15;;;14.50;68.40;;;;;;6217214;23;20112;-88
2021/11/10 14:48:34;;;;;;;19.70;10.70;;;14.70;66.90;;;;;;6212285;23;20028;-88
2021/11/10 14:51:26;;;;;;;16.90;11.15;;;15.20;65.90;;;;;;6216511;23;20060;-88
2021/11/10 14:54:16;;;;;;;17.38;9.93;;;15.20;64.20;;;;;;6215145;23;20036;-86
2021/11/10 14:57:07;;;;;;;15.18;9.93;;;14.60;65.20;;;;;;6217741;23;20028;-84
2021/11/10 15:00:01;;;;;;;20.13;10.73;;;13.60;69.00;;;;;;6228379;22;20047;-86
2021/11/10 15:02:52;;;;;;;19.90;12.70;;;12.60;73.40;;;;;;6226637;23;20110;-86
2021/11/10 15:05:42;;;;;;;20.45;13.18;;;11.90;77.60;;;;;;6226499;23;20029;-87
2021/11/10 15:08:30;;;;;;;27.80;15.52;;;11.30;80.10;;;;;;6227566;23;20044;-84
2021/11/10 15:11:18;;;;;;;23.38;13.25;;;10.70;84.90;;;;;;6264856;22;20016;-84